Pagrindinis puslapis
METAR-TAF:

METAR-TAF

Oro uostai :

Kingstonas, Jamaika

platuma: 17-56N, ilguma: 076-47W, Aukštis: 3 m

Dabartinis oras

Ataskaita buvo paskelbta 55 minutes, ne 19:00 UTC
Vėjas 14 kt iš Pietų
Temperatūra 29°C
Drėgmė 70%
Slėgis 1011 hPa
Matomumas 10 km arba daugiau
Mažai debesys ne aukštis 1800 ft
Su prošvaistėmis ne aukštis 3000 ft

METAR: MKJP 121900Z 18014KT 9999 FEW018 BKN030 29/23 Q1011

Laikas: 14:55 (19:55 UTC)

Prognozė

Ataskaita buvo paskelbta 2 valandos ir 40 minutes, ne 17:15 UTC
Prognozė galioja nuo 12 metu 18 UTC su 13 metu 18 UTC
Vėjas 18 kt iš Pietų
Matomumas 10 km arba daugiau
Mažai debesys ne aukštis 2200 ft
Tapsmas
nuo 13 metu 04 UTC su 13 metu 06 UTC
Vėjas 3 kt iš Šiaurės
Tapsmas
nuo 13 metu 14 UTC su 13 metu 16 UTC
Vėjas 15 kt iš Pietų/Pietryčių

TAF: MKJP 121715Z 1218/1318 17018KT 9999 FEW022 BECMG 1304/1306 36003KT BECMG 1314/1316 15015KT

Orai ataskaitas ir orų prognozės (METAR, TAF).

turimą stotys yra geltonos ir raudonos taškus žemėlapyje.

Perkelti pele per norėdami pamatyti stoties vardą.

Tada spustelėkite, norėdami matyti oro stebėjimo ir prognozės.

Norėdami pakeisti žemėlapį: spustelėkite ant žalios mygtukų su juodo kryžiaus žemyn,; žalią mygtuką su brūkšneliu, jei norite nutolinti; arba žalių rodyklių gretimoms žemėlapius.


METAR-TAF: